Time;durP1;ratioP1;P1;durP2;ratioP2;P2;SDS_P1;SDS_P2;PMS_P1;PMS_P2;Temp;Humidity;BMP_temperature;BMP_pressure;BME280_temperature;BME280_humidity;BME280_pressure;Samples;Min_cycle;Max_cycle;Signal;HPM_P1;HPM_P2
2023/03/29 00:00:27;;;;;;;0.60;0.60;;;;;;;4.37;80.73;97225.41;29395;236;63005;-75
2023/03/29 00:00:58;;;;;;;0.60;0.60;;;;;;;4.34;81.54;97235.81;29394;232;64009;-56
2023/03/29 00:01:31;;;;;;;0.60;0.60;;;;;;;4.31;81.37;97237.13;29395;219;63009;-76
2023/03/29 00:02:02;;;;;;;0.50;0.50;;;;;;;4.29;80.85;97231.16;29395;206;63004;-75
2023/03/29 00:02:35;;;;;;;0.60;0.60;;;;;;;4.29;79.81;97223.12;29394;237;64013;-77
2023/03/29 00:03:06;;;;;;;3.80;3.70;;;;;;;4.30;80.17;97224.75;29395;213;63004;-75
2023/03/29 00:03:38;;;;;;;0.55;0.55;;;;;;;4.33;80.34;97223.44;29395;230;63009;-75
2023/03/29 00:04:14;;;;;;;0.60;0.60;;;;;;;4.34;80.03;97225.06;29395;306;63004;-76
2023/03/29 00:04:46;;;;;;;0.55;0.55;;;;;;;4.35;80.04;97215.94;29395;203;63023;-76
2023/03/29 00:05:21;;;;;;;0.55;0.55;;;;;;;4.35;79.85;97205.22;29395;293;63005;-57
2023/03/29 00:06:01;;;;;;;0.57;0.57;;;;;;;4.36;79.77;97206.84;29395;216;63009;-76
2023/03/29 00:06:33;;;;;;;0.50;0.50;;;;;;;4.37;80.02;97214.66;29438;213;64009;-76
2023/03/29 00:07:04;;;;;;;0.60;0.60;;;;;;;4.38;80.12;97213.59;29373;214;63009;-75
2023/03/29 00:07:36;;;;;;;0.50;0.50;;;;;;;4.37;79.95;97214.66;29395;280;63014;-75
2023/03/29 00:08:08;;;;;;;0.60;0.60;;;;;;;4.36;79.84;97213.03;29395;224;63009;-77
2023/03/29 00:08:39;;;;;;;0.60;0.60;;;;;;;4.36;81.33;97212.22;29395;300;63005;-76
2023/03/29 00:09:14;;;;;;;0.50;0.50;;;;;;;4.35;80.35;97210.59;29395;206;63017;-56
2023/03/29 00:09:48;;;;;;;0.60;0.60;;;;;;;4.34;80.15;97215.12;29395;197;63015;-77
2023/03/29 00:10:22;;;;;;;0.50;0.50;;;;;;;4.35;80.19;97206.03;29395;202;63018;-77
2023/03/29 00:10:55;;;;;;;0.50;0.50;;;;;;;4.35;80.25;97208.72;29394;202;64009;-76
2023/03/29 00:11:27;;;;;;;0.60;0.60;;;;;;;4.36;80.11;97217.59;29394;202;64013;-77
2023/03/29 00:11:59;;;;;;;0.50;0.50;;;;;;;4.35;80.34;97215.94;29395;223;63004;-75
2023/03/29 00:12:31;;;;;;;0.60;0.60;;;;;;;4.35;80.01;97221.31;29394;231;64014;-76
2023/03/29 00:13:03;;;;;;;0.50;0.50;;;;;;;4.35;80.20;97222.12;29395;270;63005;-76
2023/03/29 00:13:34;;;;;;;0.60;0.60;;;;;;;4.36;80.65;97223.78;29395;351;63009;-76
2023/03/29 00:14:06;;;;;;;0.60;0.60;;;;;;;4.37;80.79;97214.66;29395;202;63009;-78
2023/03/29 00:14:37;;;;;;;0.60;0.60;;;;;;;4.37;80.60;97220.03;29395;207;63009;-77
2023/03/29 00:15:09;;;;;;;0.50;0.50;;;;;;;4.39;80.23;97222.47;29395;299;63005;-79
2023/03/29 00:15:41;;;;;;;0.57;0.57;;;;;;;4.41;80.12;97224.91;29394;214;64013;-76
2023/03/29 00:16:12;;;;;;;0.50;0.50;;;;;;;4.41;80.20;97212.28;29395;254;63005;-77
2023/03/29 00:16:45;;;;;;;0.50;0.50;;;;;;;4.41;80.02;97214.97;29395;235;63009;-75
2023/03/29 00:17:17;;;;;;;0.50;0.50;;;;;;;4.43;79.92;97217.41;29395;196;63004;-75
2023/03/29 00:17:49;;;;;;;0.60;0.60;;;;;;;4.42;80.03;97221.97;29394;200;64013;-78
2023/03/29 00:18:22;;;;;;;0.57;0.57;;;;;;;4.43;80.36;97218.22;29395;275;63004;-77
2023/03/29 00:18:54;;;;;;;0.50;0.50;;;;;;;4.45;80.14;97216.12;29395;245;63009;-73
2023/03/29 00:19:25;;;;;;;0.60;0.60;;;;;;;4.44;79.61;97214.50;29395;196;63004;-74
2023/03/29 00:19:57;;;;;;;0.50;0.50;;;;;;;4.45;79.81;97210.75;29395;367;63009;-75
2023/03/29 00:20:28;;;;;;;0.50;0.50;;;;;;;4.45;79.81;97212.63;29395;211;63005;-74
2023/03/29 00:21:00;;;;;;;0.50;0.50;;;;;;;4.45;79.69;97216.12;29395;374;63009;-80
2023/03/29 00:21:32;;;;;;;0.50;0.50;;;;;;;4.48;79.54;97206.75;29395;272;63005;-76
2023/03/29 00:22:06;;;;;;;0.60;0.60;;;;;;;4.49;79.61;97201.13;29394;219;64013;-75
2023/03/29 00:22:40;;;;;;;0.60;0.60;;;;;;;4.48;79.55;97204.88;29395;213;63005;-76
2023/03/29 00:23:12;;;;;;;0.60;0.60;;;;;;;4.49;79.50;97203.81;29395;214;63009;-76
2023/03/29 00:23:46;;;;;;;0.50;0.50;;;;;;;4.48;79.64;97204.06;29395;336;63005;-76
2023/03/29 00:24:19;;;;;;;0.50;0.50;;;;;;;4.46;79.18;97201.63;29395;202;63012;-74
2023/03/29 00:24:54;;;;;;;0.60;0.60;;;;;;;4.46;79.50;97198.94;29395;240;63009;-75
2023/03/29 00:25:25;;;;;;;0.50;0.50;;;;;;;4.46;79.93;97203.50;29395;213;63009;-75
2023/03/29 00:25:58;;;;;;;0.50;0.50;;;;;;;4.45;80.37;97204.56;29395;213;63007;-77
2023/03/29 00:26:29;;;;;;;0.60;0.60;;;;;;;4.42;79.58;97200.47;29394;282;64013;-75
2023/03/29 00:27:00;;;;;;;0.60;0.60;;;;;;;4.43;79.33;97201.31;29395;236;63004;-56
2023/03/29 00:27:32;;;;;;;0.60;0.60;;;;;;;4.41;80.51;97208.78;29394;230;64009;-76
2023/03/29 00:28:06;;;;;;;0.55;0.55;;;;;;;4.38;79.95;97202.84;29395;214;63005;-73
2023/03/29 00:28:38;;;;;;;0.60;0.60;;;;;;;4.37;79.51;97195.03;29395;323;63009;-73
2023/03/29 00:29:10;;;;;;;0.60;0.60;;;;;;;4.37;81.17;97197.72;29394;296;64009;-77
2023/03/29 00:29:41;;;;;;;0.50;0.50;;;;;;;4.33;81.79;97199.25;29395;216;63009;-57
2023/03/29 00:30:13;;;;;;;0.50;0.50;;;;;;;4.33;81.10;97196.56;29395;203;63005;-57
2023/03/29 00:30:45;;;;;;;0.50;0.50;;;;;;;4.31;81.56;97194.13;29395;226;63009;-74
2023/03/29 00:31:17;;;;;;;0.50;0.50;;;;;;;4.30;82.33;97191.69;29395;222;63005;-74
2023/03/29 00:31:52;;;;;;;0.60;0.60;;;;;;;4.29;82.31;97195.44;29394;203;64009;-56
2023/03/29 00:32:24;;;;;;;0.60;0.60;;;;;;;4.27;81.81;97198.38;29395;205;63016;-56
2023/03/29 00:32:55;;;;;;;0.50;0.50;;;;;;;4.26;82.61;97191.38;29394;220;64013;-74
2023/03/29 00:33:26;;;;;;;0.57;0.57;;;;;;;4.25;83.30;97188.91;29395;199;63004;-78
2023/03/29 00:33:59;;;;;;;0.60;0.60;;;;;;;4.22;82.35;97190.22;29395;221;63009;-74
2023/03/29 00:34:36;;;;;;;0.60;0.60;;;;;;;4.23;81.82;97196.41;29395;215;63012;-74
2023/03/29 00:35:08;;;;;;;0.60;0.60;;;;;;;4.23;81.71;97185.66;29395;238;63009;-73
2023/03/29 00:35:41;;;;;;;0.50;0.50;;;;;;;4.24;82.28;97187.28;29395;209;63005;-74
2023/03/29 00:36:13;;;;;;;0.60;0.60;;;;;;;4.23;82.45;97180.28;29395;220;63009;-74
2023/03/29 00:36:44;;;;;;;0.60;0.60;;;;;;;4.21;82.12;97183.22;29395;216;63016;-74
2023/03/29 00:37:17;;;;;;;0.60;0.60;;;;;;;4.21;83.03;97182.41;29394;231;64013;-75
2023/03/29 00:37:49;;;;;;;0.50;0.50;;;;;;;4.18;84.37;97180.22;29395;228;63016;-79
2023/03/29 00:38:20;;;;;;;0.60;0.60;;;;;;;4.18;83.59;97185.59;29395;203;63009;-75
2023/03/29 00:38:55;;;;;;;0.60;0.60;;;;;;;4.16;83.33;97180.47;29395;370;63005;-76
2023/03/29 00:39:29;;;;;;;0.50;0.50;;;;;;;4.19;83.22;97179.16;29395;241;63009;-75
2023/03/29 00:40:03;;;;;;;0.50;0.50;;;;;;;4.19;83.94;97174.59;29395;222;63004;-73
2023/03/29 00:40:44;;;;;;;0.50;0.50;;;;;;;4.18;84.11;97174.84;29395;220;63009;-75
2023/03/29 00:41:16;;;;;;;0.50;0.50;;;;;;;4.16;84.55;97174.31;29417;210;63004;-75
2023/03/29 00:41:49;;;;;;;0.50;0.50;;;;;;;4.15;85.20;97178.03;29395;229;63008;-74
2023/03/29 00:42:21;;;;;;;0.50;0.50;;;;;;;4.12;84.98;97178.53;29394;202;64008;-76
2023/03/29 00:42:55;;;;;;;0.50;0.50;;;;;;;4.11;84.74;97171.53;29395;287;63009;-75
2023/03/29 00:43:26;;;;;;;0.50;0.50;;;;;;;4.10;85.01;97173.41;29395;216;63005;-74
2023/03/29 00:44:03;;;;;;;0.50;0.50;;;;;;;4.11;84.69;97171.53;29395;214;63009;-74
2023/03/29 00:45:00;;;;;;;0.52;0.52;;;;;;;4.08;84.81;97172.84;29395;206;63005;-74
2023/03/29 00:45:34;;;;;;;0.50;0.50;;;;;;;4.07;84.54;97165.03;29395;203;63005;-74
2023/03/29 00:46:06;;;;;;;0.50;0.50;;;;;;;4.06;85.01;97166.88;29395;210;63018;-74
2023/03/29 00:46:37;;;;;;;0.60;0.60;;;;;;;4.04;84.55;97167.13;29395;218;63015;-75
2023/03/29 00:47:09;;;;;;;0.50;0.50;;;;;;;4.05;85.12;97167.94;29395;236;63009;-76
2023/03/29 00:47:55;;;;;;;0.60;0.60;;;;;;;4.03;85.82;97165.50;29394;212;64009;-73
2023/03/29 00:48:28;;;;;;;0.60;0.60;;;;;;;4.02;85.46;97169.25;29395;320;63009;-75
2023/03/29 00:49:12;;;;;;;0.50;0.50;;;;;;;4.00;85.29;97166.00;29395;227;63004;-57
2023/03/29 00:49:46;;;;;;;0.50;0.50;;;;;;;3.99;85.13;97164.38;29395;224;63008;-73
2023/03/29 00:50:24;;;;;;;0.60;0.60;;;;;;;3.98;85.02;97168.09;29395;205;63005;-76
2023/03/29 00:51:02;;;;;;;0.50;0.50;;;;;;;3.99;85.28;97159.00;29395;246;63009;-74
2023/03/29 00:51:38;;;;;;;0.60;0.60;;;;;;;3.99;85.47;97163.56;29394;214;64009;-73
2023/03/29 00:52:12;;;;;;;0.60;0.60;;;;;;;3.99;85.97;97161.69;29395;270;63009;-74
2023/03/29 00:52:54;;;;;;;0.50;0.50;;;;;;;3.98;85.59;97167.28;29395;219;63005;-72
2023/03/29 00:53:35;;;;;;;0.52;0.52;;;;;;;3.97;86.86;97169.16;29394;247;64013;-57
2023/03/29 00:54:08;;;;;;;;;;;;;;;3.94;86.72;97166.97;29996;983;6000;-72
2023/03/29 00:54:42;;;;;;;0.60;0.60;;;;;;;3.94;86.43;97168.84;29399;203;64009;-72
2023/03/29 00:55:20;;;;;;;0.50;0.50;;;;;;;3.95;86.51;97165.91;29395;237;63009;-73
2023/03/29 00:55:58;;;;;;;0.50;0.50;;;;;;;3.95;86.48;97173.97;29395;226;63004;-73
2023/03/29 00:56:35;;;;;;;0.50;0.50;;;;;;;3.96;85.82;97169.41;29395;299;63009;-74
2023/03/29 00:57:08;;;;;;;0.50;0.50;;;;;;;3.96;85.27;97167.53;29395;218;63004;-75
2023/03/29 00:57:45;;;;;;;0.60;0.60;;;;;;;3.95;84.79;97168.59;29395;206;63013;-75
2023/03/29 00:58:27;;;;;;;0.60;0.60;;;;;;;3.97;84.94;97169.16;29394;281;64009;-73
2023/03/29 00:59:17;;;;;;;0.60;0.60;;;;;;;3.98;85.13;97170.78;29395;220;63009;-74
2023/03/29 00:59:51;;;;;;;0.60;0.60;;;;;;;3.98;85.34;97160.06;29395;222;63005;-74
2023/03/29 01:00:30;;;;;;;0.50;0.50;;;;;;;3.99;85.94;97169.72;29395;209;63009;-74
2023/03/29 01:01:09;;;;;;;0.60;0.60;;;;;;;3.98;85.38;97170.78;29395;219;63016;-71
2023/03/29 01:02:02;;;;;;;0.57;0.57;;;;;;;3.97;85.06;97163.78;29395;210;63009;-74
2023/03/29 01:02:38;;;;;;;0.60;0.60;;;;;;;3.99;85.08;97164.38;29394;212;64009;-73
2023/03/29 01:03:13;;;;;;;0.60;0.60;;;;;;;3.99;85.87;97169.72;29395;214;63009;-75
2023/03/29 01:03:53;;;;;;;0.50;0.50;;;;;;;3.97;85.98;97166.47;29395;226;63004;-73
2023/03/29 01:04:35;;;;;;;0.57;0.57;;;;;;;3.96;85.85;97164.84;29417;215;63008;-76
2023/03/29 01:05:13;;;;;;;0.60;0.60;;;;;;;3.97;85.01;97161.09;29395;210;63004;-74
2023/03/29 01:05:47;;;;;;;0.60;0.60;;;;;;;3.98;85.16;97165.41;29395;262;63009;-56
2023/03/29 01:06:28;;;;;;;0.60;0.60;;;;;;;3.99;85.16;97153.62;29395;202;63005;-75
2023/03/29 01:07:08;;;;;;;0.52;0.52;;;;;;;4.00;84.61;97154.44;29417;255;63018;-77
2023/03/29 01:07:56;;;;;;;0.60;0.60;;;;;;;3.99;84.48;97159.00;29394;221;64009;-74
2023/03/29 01:08:44;;;;;;;0.60;0.60;;;;;;;3.99;85.51;97159.00;29394;212;64013;-77
2023/03/29 01:09:18;;;;;;;0.50;0.50;;;;;;;3.99;86.23;97153.62;29395;311;63004;-75
2023/03/29 01:10:05;;;;;;;0.60;0.60;;;;;;;3.99;85.59;97148.25;29395;216;63009;-70
2023/03/29 01:10:46;;;;;;;0.60;0.60;;;;;;;3.98;84.95;97152.00;29395;202;63004;-73
2023/03/29 01:11:21;;;;;;;;;;;;;;;3.99;85.97;97156.31;29996;983;6004;-72
2023/03/29 01:11:55;;;;;;;0.60;0.60;;;;;;;3.98;86.71;97151.19;29400;213;63008;-57
2023/03/29 01:12:38;;;;;;;0.50;0.50;;;;;;;3.97;86.14;97155.75;29395;225;63005;-73
2023/03/29 01:13:20;;;;;;;0.50;0.50;;;;;;;3.97;85.77;97147.69;29394;237;64014;-73
2023/03/29 01:14:05;;;;;;;0.60;0.60;;;;;;;3.98;85.01;97143.13;29395;210;63005;-73
2023/03/29 01:14:49;;;;;;;0.50;0.50;;;;;;;3.98;84.90;97141.25;29395;365;63009;-73
2023/03/29 01:15:28;;;;;;;0.50;0.50;;;;;;;4.01;84.30;97140.78;29394;222;64009;-77
2023/03/29 01:16:01;;;;;;;0.60;0.60;;;;;;;4.03;84.27;97127.91;29395;236;63019;-57
2023/03/29 01:16:37;;;;;;;0.50;0.50;;;;;;;4.06;83.71;97134.66;29395;348;63004;-57
2023/03/29 01:17:08;;;;;;;0.50;0.50;;;;;;;4.15;83.39;97124.34;29395;230;63009;-57
2023/03/29 01:17:49;;;;;;;0.50;0.50;;;;;;;4.23;82.98;97123.91;29395;249;63004;-74
2023/03/29 01:18:20;;;;;;;0.60;0.60;;;;;;;4.29;82.78;97125.59;29417;230;63004;-74
2023/03/29 01:18:52;;;;;;;0.57;0.57;;;;;;;4.41;81.93;97123.62;29395;237;63004;-57
2023/03/29 01:19:29;;;;;;;0.60;0.60;;;;;;;4.49;81.53;97128.59;29395;208;63004;-60
2023/03/29 01:20:14;;;;;;;0.50;0.50;;;;;;;4.52;81.34;97121.88;29395;236;63005;-57
2023/03/29 01:21:08;;;;;;;0.60;0.60;;;;;;;4.47;81.08;97122.66;29394;214;64014;-59
2023/03/29 01:22:00;;;;;;;0.50;0.50;;;;;;;4.39;81.51;97125.75;29395;205;63013;-59
2023/03/29 01:22:50;;;;;;;0.55;0.55;;;;;;;4.36;81.15;97131.62;29394;263;64013;-57
2023/03/29 01:24:05;;;;;;;0.60;0.60;;;;;;;4.33;81.59;97132.09;29395;230;63005;-57
2023/03/29 01:25:40;;;;;;;0.57;0.57;;;;;;;4.22;82.23;97130.31;29395;210;63009;-70
2023/03/29 01:26:35;;;;;;;0.60;0.60;;;;;;;4.16;82.50;97128.66;29395;288;63004;-69
2023/03/29 01:27:51;;;;;;;0.60;0.60;;;;;;;4.11;83.48;97124.00;29373;298;63009;-57
2023/03/29 01:28:31;;;;;;;0.60;0.60;;;;;;;4.04;84.31;97129.53;29371;199;64009;-68
2023/03/29 01:29:19;;;;;;;0.55;0.55;;;;;;;4.03;84.33;97124.41;29395;234;63009;-57
2023/03/29 01:30:00;;;;;;;0.60;0.60;;;;;;;4.01;85.27;97127.34;29373;221;63005;-56
2023/03/29 01:30:52;;;;;;;0.60;0.60;;;;;;;4.00;85.41;97128.41;29395;241;63009;-68
2023/03/29 01:31:29;;;;;;;0.60;0.60;;;;;;;4.01;85.05;97123.84;29417;222;63004;-68
2023/03/29 01:32:10;;;;;;;0.60;0.60;;;;;;;4.01;85.04;97118.47;29395;207;63010;-69
2023/03/29 01:33:03;;;;;;;0.60;0.60;;;;;;;4.00;85.00;97119.53;29395;204;63004;-57
2023/03/29 01:33:48;;;;;;;0.50;0.50;;;;;;;4.02;84.38;97123.59;29394;197;64013;-69
2023/03/29 01:35:02;;;;;;;0.60;0.60;;;;;;;4.01;84.27;97124.66;29373;202;63008;-70
2023/03/29 01:35:48;;;;;;;0.60;0.60;;;;;;;3.99;84.84;97116.03;29395;223;63009;-69
2023/03/29 01:36:30;;;;;;;0.60;0.60;;;;;;;3.98;84.37;97111.72;29373;254;63009;-68
2023/03/29 01:37:25;;;;;;;0.60;0.60;;;;;;;3.98;84.54;97114.41;29373;197;63009;-70
2023/03/29 01:38:15;;;;;;;0.60;0.60;;;;;;;3.98;84.74;97114.41;29395;230;63005;-57
2023/03/29 01:38:55;;;;;;;0.60;0.60;;;;;;;3.97;85.21;97107.41;29394;233;64013;-70
2023/03/29 01:39:30;;;;;;;0.60;0.60;;;;;;;3.95;86.32;97109.53;29417;241;63004;-69
2023/03/29 01:40:04;;;;;;;0.60;0.60;;;;;;;3.93;86.23;97111.63;29395;293;63009;-68
2023/03/29 01:40:35;;;;;;;0.52;0.52;;;;;;;3.92;86.55;97112.69;29395;196;63004;-69
2023/03/29 01:41:06;;;;;;;0.60;0.60;;;;;;;3.92;87.07;97115.38;29373;239;63012;-57
2023/03/29 01:42:01;;;;;;;0.60;0.60;;;;;;;3.91;86.99;97116.44;29395;284;63004;-68
2023/03/29 01:43:13;;;;;;;1.08;1.08;;;;;;;3.92;87.33;97109.19;29395;250;63009;-69
2023/03/29 01:43:55;;;;;;;0.60;0.60;;;;;;;3.89;87.94;97102.44;29417;238;63005;-71
2023/03/29 01:45:13;;;;;;;0.60;0.60;;;;;;;3.95;86.54;97100.66;29394;246;64013;-58
2023/03/29 01:46:10;;;;;;;0.60;0.60;;;;;;;4.02;85.40;97099.44;29395;228;63005;-70
2023/03/29 01:46:54;;;;;;;0.60;0.60;;;;;;;4.01;85.63;97103.19;29394;237;64009;-57
2023/03/29 01:48:00;;;;;;;0.50;0.50;;;;;;;3.98;86.50;97102.84;29395;233;63004;-57
2023/03/29 01:48:54;;;;;;;0.60;0.60;;;;;;;3.95;85.81;97098.78;29395;231;63012;-70
2023/03/29 01:49:33;;;;;;;0.50;0.50;;;;;;;3.93;86.65;97087.47;29395;264;63004;-69
2023/03/29 01:50:46;;;;;;;0.50;0.50;;;;;;;3.94;86.14;97097.16;29371;246;64014;-57
2023/03/29 01:52:18;;;;;;;0.60;0.60;;;;;;;3.90;86.62;97090.66;29395;229;63005;-69
2023/03/29 01:52:59;;;;;;;0.52;0.52;;;;;;;3.93;86.54;97090.16;29394;282;64013;-68
2023/03/29 01:53:38;;;;;;;0.60;0.60;;;;;;;3.91;86.65;97086.91;29395;214;63005;-70
2023/03/29 01:54:25;;;;;;;0.60;0.60;;;;;;;3.91;87.19;97086.91;29395;202;63009;-66
2023/03/29 01:55:09;;;;;;;0.60;0.60;;;;;;;3.90;87.42;97089.84;29373;199;63004;-68
2023/03/29 01:55:48;;;;;;;0.60;0.60;;;;;;;3.89;87.67;97083.66;29395;293;63009;-72
2023/03/29 01:56:24;;;;;;;0.50;0.50;;;;;;;3.86;88.30;97081.47;29395;241;63004;-56
2023/03/29 01:56:57;;;;;;;0.60;0.60;;;;;;;3.85;88.37;97079.84;29395;241;63008;-70
2023/03/29 01:57:31;;;;;;;0.60;0.60;;;;;;;3.84;88.48;97078.22;29395;197;63009;-67
2023/03/29 01:58:06;;;;;;;0.50;0.50;;;;;;;3.86;88.16;97076.09;29394;228;64014;-73
2023/03/29 01:58:43;;;;;;;0.60;0.60;;;;;;;3.88;87.27;97065.13;29395;202;63005;-70
2023/03/29 01:59:19;;;;;;;0.60;0.60;;;;;;;3.90;86.87;97061.13;29395;195;63009;-59
2023/03/29 01:59:53;;;;;;;0.50;0.50;;;;;;;3.94;86.73;97075.69;29395;223;63005;-58
2023/03/29 02:00:28;;;;;;;0.60;0.60;;;;;;;3.96;86.30;97068.19;29394;244;64013;-58
2023/03/29 02:01:04;;;;;;;0.50;0.50;;;;;;;4.00;85.99;97060.47;29395;387;63004;-58
2023/03/29 02:01:41;;;;;;;0.50;0.50;;;;;;;4.02;85.65;97061.84;29395;198;63009;-71
2023/03/29 02:02:16;;;;;;;0.60;0.60;;;;;;;4.03;85.44;97046.56;29395;199;63004;-69
2023/03/29 02:02:50;;;;;;;0.60;0.60;;;;;;;4.08;85.56;97052.00;29395;278;63009;-61
2023/03/29 02:03:26;;;;;;;0.60;0.60;;;;;;;4.11;85.32;97048.00;29395;202;63004;-58
2023/03/29 02:04:02;;;;;;;0.50;0.50;;;;;;;4.11;85.04;97053.38;29395;245;63008;-68
2023/03/29 02:04:37;;;;;;;0.55;0.55;;;;;;;4.12;85.11;97055.00;29395;280;63014;-57
2023/03/29 02:05:11;;;;;;;4.15;3.15;;;;;;;4.14;85.54;97052.88;29395;207;63009;-69
2023/03/29 02:05:44;;;;;;;0.60;0.60;;;;;;;4.12;85.28;97055.81;29394;287;64009;-69
2023/03/29 02:06:23;;;;;;;0.50;0.50;;;;;;;4.16;85.33;97050.75;29395;206;63009;-67
2023/03/29 02:06:58;;;;;;;0.60;0.60;;;;;;;4.21;85.30;97053.50;29395;205;63005;-62
2023/03/29 02:07:31;;;;;;;0.60;0.60;;;;;;;4.23;84.67;97052.19;29395;309;63009;-57
2023/03/29 02:08:06;;;;;;;0.60;0.60;;;;;;;4.20;85.44;97049.19;29395;297;63005;-58
2023/03/29 02:08:40;;;;;;;0.60;0.60;;;;;;;4.22;84.87;97041.69;29395;258;63009;-58
2023/03/29 02:09:12;;;;;;;0.60;0.60;;;;;;;4.26;84.47;97053.56;29395;239;63004;-68
2023/03/29 02:09:45;;;;;;;0.50;0.50;;;;;;;4.27;84.53;97053.31;29395;269;63009;-57
2023/03/29 02:10:18;;;;;;;0.60;0.60;;;;;;;4.25;84.34;97054.62;29395;217;63000;-56
2023/03/29 02:10:53;;;;;;;0.52;0.52;;;;;;;4.21;84.64;97046.25;29394;215;64013;-56
2023/03/29 02:11:38;;;;;;;;;;;;;;;;;;;;;
2023/03/29 02:12:13;;;;;;;0.60;0.60;;;;;;;4.34;84.91;97042.41;29394;222;64009;-61
2023/03/29 02:12:44;;;;;;;0.60;0.60;;;;;;;4.33;84.31;97041.59;29395;210;63005;-68
2023/03/29 02:13:16;;;;;;;0.50;0.50;;;;;;;4.38;84.18;97048.91;29395;223;63009;-59
2023/03/29 02:13:48;;;;;;;0.60;0.60;;;;;;;4.36;84.02;97042.97;29395;302;63005;-71
2023/03/29 02:14:20;;;;;;;0.60;0.60;;;;;;;4.36;84.29;97046.47;29395;259;63009;-58
2023/03/29 02:14:51;;;;;;;0.60;0.60;;;;;;;4.34;84.06;97047.78;29395;199;63005;-74
2023/03/29 02:15:22;;;;;;;0.50;0.50;;;;;;;4.30;83.98;97041.25;29395;198;63009;-56
2023/03/29 02:15:55;;;;;;;0.60;0.60;;;;;;;4.26;83.92;97040.94;29394;210;64009;-58
2023/03/29 02:16:28;;;;;;;0.60;0.60;;;;;;;4.28;84.13;97043.37;29395;222;63024;-59
2023/03/29 02:17:29;;;;;;;0.60;0.60;;;;;;;4.30;83.90;97042.06;29395;218;63004;-57
2023/03/29 02:18:02;;;;;;;0.60;0.60;;;;;;;4.27;84.08;97031.84;29394;210;64013;-58
2023/03/29 02:18:35;;;;;;;0.57;0.57;;;;;;;4.28;83.92;97041.50;29395;376;63004;-58
2023/03/29 02:19:08;;;;;;;0.50;0.50;;;;;;;4.34;84.00;97042.41;29395;198;63009;-58
2023/03/29 02:19:40;;;;;;;0.50;0.50;;;;;;;4.33;83.99;97035.41;29395;256;63005;-69
2023/03/29 02:20:46;;;;;;;0.57;0.57;;;;;;;4.29;84.08;97039.62;29395;226;63009;-70
2023/03/29 02:21:50;;;;;;;0.60;0.60;;;;;;;4.29;84.45;97037.78;29395;209;63005;-56
2023/03/29 02:22:27;;;;;;;0.50;0.50;;;;;;;4.32;84.35;97039.16;29395;197;63009;-58
2023/03/29 02:23:13;;;;;;;0.60;0.60;;;;;;;4.30;84.15;97041.25;29394;217;64009;-57
2023/03/29 02:23:47;;;;;;;0.50;0.50;;;;;;;4.26;84.31;97034.75;29395;220;63009;-56
2023/03/29 02:24:23;;;;;;;0.60;0.60;;;;;;;4.21;84.23;97048.94;29395;197;63004;-72
2023/03/29 02:24:57;;;;;;;0.60;0.60;;;;;;;4.22;84.80;97045.19;29394;238;64013;-59
2023/03/29 02:25:31;;;;;;;0.52;0.52;;;;;;;4.22;84.96;97044.37;29395;196;63004;-57
2023/03/29 02:26:05;;;;;;;0.60;0.60;;;;;;;4.20;84.56;97041.94;29395;238;63008;-57
2023/03/29 02:26:38;;;;;;;0.60;0.60;;;;;;;4.19;84.46;97036.81;29395;198;63005;-57
2023/03/29 02:27:09;;;;;;;0.60;0.60;;;;;;;4.18;84.58;97043.25;29395;233;63009;-56
2023/03/29 02:27:41;;;;;;;0.60;0.60;;;;;;;4.15;85.01;97039.22;29395;221;63005;-57
2023/03/29 02:28:13;;;;;;;0.60;0.60;;;;;;;4.13;85.17;97051.25;29395;239;63009;-70
2023/03/29 02:28:44;;;;;;;0.60;0.60;;;;;;;4.12;85.06;97039.69;29395;233;63005;-56
2023/03/29 02:29:16;;;;;;;0.50;0.50;;;;;;;4.13;85.24;97045.88;29395;215;63009;-57
2023/03/29 02:29:48;;;;;;;0.60;0.60;;;;;;;4.12;85.40;97050.44;29395;277;63005;-56
2023/03/29 02:30:21;;;;;;;0.60;0.60;;;;;;;4.12;85.15;97041.56;29394;217;64013;-57
2023/03/29 02:31:20;;;;;;;0.60;0.60;;;;;;;4.15;85.30;97039.22;29395;231;63004;-56
2023/03/29 02:32:04;;;;;;;0.60;0.60;;;;;;;4.25;85.03;97044.69;29395;257;63009;-57
2023/03/29 02:32:58;;;;;;;0.60;0.60;;;;;;;4.26;85.17;97032.06;29395;197;63004;-56
2023/03/29 02:33:58;;;;;;;0.60;0.60;;;;;;;4.33;84.84;97038.91;29395;220;63008;-55
2023/03/29 02:34:59;;;;;;;0.60;0.60;;;;;;;4.34;84.40;97037.03;29395;205;63005;-57
2023/03/29 02:35:40;;;;;;;0.60;0.60;;;;;;;4.29;84.56;97050.38;29416;203;64014;-55
2023/03/29 02:36:17;;;;;;;0.60;0.60;;;;;;;4.24;84.66;97047.62;29416;219;64009;-56
2023/03/29 02:36:55;;;;;;;0.60;0.60;;;;;;;4.20;84.67;97046.50;29395;202;63009;-57
2023/03/29 02:37:33;;;;;;;0.60;0.60;;;;;;;4.16;85.29;97053.44;29395;231;63005;-58
2023/03/29 02:38:10;;;;;;;0.50;0.50;;;;;;;4.12;85.51;97052.31;29395;229;63009;-58
2023/03/29 02:38:42;;;;;;;0.50;0.50;;;;;;;4.08;85.98;97053.88;29395;196;63000;-57
2023/03/29 02:39:17;;;;;;;0.50;0.50;;;;;;;4.06;85.94;97050.63;29395;222;63017;-57
2023/03/29 02:39:50;;;;;;;0.60;0.60;;;;;;;4.06;85.81;97050.63;29395;238;63009;-57
2023/03/29 02:40:23;;;;;;;0.50;0.50;;;;;;;4.06;85.78;97047.94;29394;238;64013;-57
2023/03/29 02:40:57;;;;;;;0.60;0.60;;;;;;;4.09;85.77;97047.44;29394;218;64008;-57
2023/03/29 02:42:36;;;;;;;0.60;0.60;;;;;;;4.13;85.40;97052.06;88178;204;64004;-57
2023/03/29 02:43:10;;;;;;;0.50;0.50;;;;;;;4.11;85.55;97042.63;29394;236;64009;-56
2023/03/29 02:43:44;;;;;;;0.57;0.57;;;;;;;4.10;85.21;97041.81;29395;209;63005;-56
2023/03/29 02:44:20;;;;;;;0.60;0.60;;;;;;;4.10;85.30;97035.63;29395;215;63009;-57
2023/03/29 02:44:55;;;;;;;1.12;1.12;;;;;;;4.14;85.27;97040.28;29394;287;64009;-57
2023/03/29 02:45:28;;;;;;;0.60;0.60;;;;;;;4.18;84.87;97037.88;29395;206;63009;-56
2023/03/29 02:46:00;;;;;;;0.50;0.50;;;;;;;4.21;84.75;97045.44;29395;236;63004;-57
2023/03/29 02:46:31;;;;;;;0.57;0.57;;;;;;;4.21;84.44;97032.00;29395;203;63009;-57
2023/03/29 02:47:13;;;;;;;0.57;0.57;;;;;;;4.22;84.28;97033.63;29395;207;63004;-69
2023/03/29 02:47:50;;;;;;;0.60;0.60;;;;;;;4.21;84.11;97042.75;29395;198;63009;-69
2023/03/29 02:48:26;;;;;;;0.50;0.50;;;;;;;4.19;84.54;97044.88;29394;196;64008;-56
2023/03/29 02:48:58;;;;;;;0.50;0.50;;;;;;;4.20;84.47;97030.38;29395;214;63009;-57
2023/03/29 02:49:29;;;;;;;0.60;0.60;;;;;;;4.22;84.23;97033.63;29395;222;63019;-57
2023/03/29 02:50:01;;;;;;;0.50;0.50;;;;;;;4.26;84.14;97024.03;29395;237;63013;-57
2023/03/29 02:50:38;;;;;;;0.60;0.60;;;;;;;4.33;84.07;97030.03;29395;219;63008;-58
2023/03/29 02:51:19;;;;;;;0.85;0.85;;;;;;;4.39;83.27;97023.66;29395;203;63025;-57
2023/03/29 02:51:54;;;;;;;0.60;0.60;;;;;;;4.46;83.02;97024.28;29417;197;63005;-61
2023/03/29 02:52:33;;;;;;;0.50;0.50;;;;;;;4.51;82.58;97024.31;29395;219;63015;-56
2023/03/29 02:53:14;;;;;;;0.57;0.57;;;;;;;4.56;81.82;97023.56;29395;295;63004;-57
2023/03/29 02:53:56;;;;;;;0.60;0.60;;;;;;;4.52;81.92;97017.06;29416;210;64013;-58
2023/03/29 02:54:30;;;;;;;0.52;0.52;;;;;;;4.53;81.66;97016.81;29395;210;63004;-57
2023/03/29 02:55:07;;;;;;;0.60;0.60;;;;;;;4.55;81.73;97008.50;29395;215;63009;-57
2023/03/29 02:55:39;;;;;;;0.60;0.60;;;;;;;4.53;81.67;97008.75;29395;198;63015;-60
2023/03/29 02:56:10;;;;;;;0.60;0.60;;;;;;;4.49;81.65;97021.09;29395;239;63008;-59
2023/03/29 02:56:48;;;;;;;0.50;0.50;;;;;;;4.47;81.80;97012.47;29395;299;63005;-59
2023/03/29 02:57:25;;;;;;;0.50;0.50;;;;;;;4.49;81.57;97018.41;29394;200;64014;-58
2023/03/29 02:57:57;;;;;;;0.60;0.60;;;;;;;4.48;81.46;97014.09;29395;211;63005;-59
2023/03/29 02:58:30;;;;;;;0.60;0.60;;;;;;;4.51;81.12;97016.25;29395;261;63009;-59
2023/03/29 02:59:01;;;;;;;0.50;0.50;;;;;;;4.57;80.88;97009.88;29394;197;64009;-57
2023/03/29 02:59:33;;;;;;;1.48;0.85;;;;;;;4.60;80.49;97004.00;29395;211;63009;-62
2023/03/29 03:00:09;;;;;;;0.50;0.50;;;;;;;4.59;80.06;97005.06;29395;208;63005;-62
2023/03/29 03:00:45;;;;;;;0.60;0.60;;;;;;;4.63;79.71;97003.50;29395;240;63009;-57
2023/03/29 03:01:19;;;;;;;0.55;0.55;;;;;;;4.68;79.64;97000.88;29394;215;64009;-62
2023/03/29 03:01:51;;;;;;;0.50;0.50;;;;;;;4.72;79.23;97007.38;29395;206;63016;-60
2023/03/29 03:02:26;;;;;;;0.60;0.60;;;;;;;4.71;79.21;97000.38;29395;233;63010;-59
2023/03/29 03:02:58;;;;;;;0.52;0.52;;;;;;;4.68;79.02;97003.56;29395;243;63008;-59
2023/03/29 03:03:30;;;;;;;0.50;0.50;;;;;;;4.65;79.16;96997.87;29395;241;63004;-67
2023/03/29 03:04:02;;;;;;;0.70;0.70;;;;;;;4.68;79.00;96998.19;29394;233;64014;-58
2023/03/29 03:04:34;;;;;;;0.50;0.50;;;;;;;4.68;78.99;96998.19;29395;204;63005;-58